This is the latest recevied weather packets stored in our database for station/object VA2EYZ-13. If no packets are shown the sender has not sent any weather packets the latest 10 day(s).
| Time | Temp. | Humidity | Pressure | Rain* | Wind** | Luminosity | Snow |
|---|---|---|---|---|---|---|---|
| 1777920175 | 12.22° C | 34% | 1004.8 hPa | - | - | - | - |
| 1777917834 | 12.22° C | 34% | 1005 hPa | - | - | - | - |
| 1777916204 | 11.67° C | 37% | 1005 hPa | - | - | - | - |
| 1777914234 | 11.67° C | 37% | 1005 hPa | - | - | - | - |
| 1777911386 | 11.11° C | 40% | 1005 hPa | - | - | - | - |
| 1777910634 | 11.11° C | 40% | 1005.5 hPa | - | - | - | - |
| 1777907682 | 10° C | 44% | 1005.5 hPa | - | - | - | - |
| 1777907034 | 10° C | 44% | 1005.4 hPa | - | - | - | - |
| 1777904596 | 10° C | 44% | 1005.4 hPa | - | - | - | - |
| 1777903436 | 10° C | 44% | 1005 hPa | - | - | - | - |
| 1777902834 | 10° C | 44% | 1005 hPa | - | - | - | - |
| 1777901934 | 9.44° C | 45% | 1005 hPa | - | - | - | - |
| 1777899834 | 9.44° C | 46% | 1004 hPa | - | - | - | - |
| 1777898634 | 9.44° C | 47% | 1004.8 hPa | - | - | - | - |
| 1777898291 | 9.44° C | 46% | 1004.8 hPa | - | - | - | - |
| 1777896834 | 9.44° C | 46% | 1004 hPa | - | - | - | - |
| 1777896234 | 8.89° C | 46% | 1004 hPa | - | - | - | - |
| 1777892634 | 8.89° C | 46% | 1004 hPa | - | - | - | - |
| 1777891764 | 8.33° C | 46% | 1004 hPa | - | - | - | - |
| 1777890984 | 8.33° C | 46% | 1004 hPa | - | - | - | - |
| 1777887534 | 8.89° C | 40% | 1005 hPa | - | - | - | - |
| 1777887026 | 8.89° C | 40% | 1005 hPa | - | - | - | - |
| 1777885432 | 8.89° C | 40% | 1005.5 hPa | - | - | - | - |
| 1777884862 | 8.89° C | 38% | 1005.5 hPa | - | - | - | - |
| 1777882654 | 8.89° C | 38% | 1005 hPa | - | - | - | - |
* Rain since midnight (hover to see other rain measurements)
** Current wind speed in m/s (hover to see current wind gust speed)